Time;durP1;ratioP1;P1;durP2;ratioP2;P2;SDS_P1;SDS_P2;PMS_P1;PMS_P2;Temp;Humidity;BMP_temperature;BMP_pressure;BME280_temperature;BME280_humidity;BME280_pressure;Samples;Min_cycle;Max_cycle;Signal;HPM_P1;HPM_P2
2021/10/10 00:00:06;;;;;;;16.90;6.33;;;;;;;7.50;100.00;101357.65;1717852;84;21064;-79
2021/10/10 00:02:35;;;;;;;12.63;6.17;;;;;;;7.46;100.00;101358.38;1715069;84;21038;-81
2021/10/10 00:05:01;;;;;;;14.90;6.10;;;;;;;7.46;100.00;101353.48;1717888;84;21077;-81
2021/10/10 00:07:28;;;;;;;15.13;6.70;;;;;;;7.44;100.00;101350.03;1729939;83;21077;-80
2021/10/10 00:09:54;;;;;;;15.13;6.30;;;;;;;7.45;100.00;101346.38;1718018;84;21060;-79
2021/10/10 00:12:21;;;;;;;15.00;6.30;;;;;;;7.46;100.00;101349.45;1717795;84;21037;-80
2021/10/10 00:14:48;;;;;;;15.33;6.80;;;;;;;7.46;100.00;101346.77;1717833;83;21556;-78
2021/10/10 00:17:15;;;;;;;13.53;5.93;;;;;;;7.47;100.00;101347.99;1730064;83;21018;-81
2021/10/10 00:19:45;;;;;;;13.43;6.00;;;;;;;7.49;100.00;101345.16;1717635;84;21014;-80
2021/10/10 00:22:12;;;;;;;13.63;6.00;;;;;;;7.52;100.00;101340.39;1718124;84;21030;-80
2021/10/10 00:24:38;;;;;;;16.80;6.20;;;;;;;7.55;100.00;101344.20;1683563;85;21021;-81
2021/10/10 00:27:05;;;;;;;15.33;6.27;;;;;;;7.56;99.24;101343.23;1683451;85;21096;-79
2021/10/10 00:29:32;;;;;;;14.67;5.83;;;;;;;7.57;97.88;101336.00;1683488;85;21519;-80
2021/10/10 00:32:01;;;;;;;12.80;5.77;;;;;;;7.63;96.26;101334.66;1683596;85;21036;-80
2021/10/10 00:34:28;;;;;;;11.90;5.80;;;;;;;7.66;94.68;101340.66;1683137;85;21107;-80
2021/10/10 00:36:54;;;;;;;12.77;5.70;;;;;;;7.71;93.29;101341.66;1683404;85;21495;-80
2021/10/10 00:39:21;;;;;;;12.27;5.53;;;;;;;7.74;92.63;101339.58;1679862;85;21046;-80
2021/10/10 00:41:48;;;;;;;13.97;6.10;;;;;;;7.77;91.92;101338.00;1705499;84;21045;-81
2021/10/10 00:44:14;;;;;;;12.67;5.80;;;;;;;7.79;91.03;101334.70;1705685;84;21025;-80
2021/10/10 00:46:41;;;;;;;12.63;5.53;;;;;;;7.83;90.62;101340.69;1713918;84;20995;-80
2021/10/10 00:49:08;;;;;;;13.33;6.00;;;;;;;7.85;89.35;101337.88;1717260;83;21019;-80
2021/10/10 00:51:36;;;;;;;12.23;5.67;;;;;;;7.87;88.52;101339.46;1717285;83;21015;-80
2021/10/10 00:54:04;;;;;;;12.80;5.40;;;;;;;7.89;88.22;101338.00;1717308;84;21090;-81
2021/10/10 00:56:31;;;;;;;11.80;5.40;;;;;;;7.90;88.25;101346.45;1716829;83;21006;-79
2021/10/10 00:58:59;;;;;;;10.97;5.40;;;;;;;7.91;87.74;101349.00;1716889;84;21023;-82
2021/10/10 01:01:30;;;;;;;12.43;5.60;;;;;;;7.93;87.33;101342.15;1716755;84;21014;-80
2021/10/10 01:03:58;;;;;;;10.53;5.27;;;;;;;7.94;87.37;101346.57;1710198;83;21109;-82
2021/10/10 01:06:25;;;;;;;12.37;4.97;;;;;;;7.94;87.36;101350.11;1717173;84;21029;-81
2021/10/10 01:08:52;;;;;;;11.13;4.97;;;;;;;7.93;87.27;101351.11;1717338;84;20987;-80
2021/10/10 01:11:19;;;;;;;17.43;5.20;;;;;;;7.94;86.83;101352.80;1716890;83;21035;-80
2021/10/10 01:13:45;;;;;;;11.60;4.63;;;;;;;7.94;86.76;101355.50;1717313;84;21520;-80
2021/10/10 01:16:12;;;;;;;10.30;5.17;;;;;;;7.93;86.03;101351.11;1717323;84;21039;-81
2021/10/10 01:18:39;;;;;;;9.40;4.90;;;;;;;7.91;85.19;101351.70;1717073;84;21015;-81
2021/10/10 01:21:05;;;;;;;9.80;4.70;;;;;;;7.92;85.13;101354.77;1744981;82;21022;-80
2021/10/10 01:23:32;;;;;;;10.30;4.90;;;;;;;7.91;85.43;101346.80;1747654;82;21066;-80
2021/10/10 01:25:59;;;;;;;11.63;4.77;;;;;;;7.91;85.58;101358.42;1747694;82;21010;-82
2021/10/10 01:28:26;;;;;;;11.40;4.70;;;;;;;7.90;86.43;101356.73;1747671;82;21057;-81
2021/10/10 01:30:53;;;;;;;9.30;4.57;;;;;;;7.89;86.63;101357.70;1747802;82;21002;-79
2021/10/10 01:33:19;;;;;;;22.33;5.43;;;;;;;7.87;86.56;101360.16;1747695;82;21059;-81
2021/10/10 01:35:46;;;;;;;9.53;4.67;;;;;;;7.85;87.21;101352.70;1747585;82;20982;-82
2021/10/10 01:38:18;;;;;;;11.43;4.77;;;;;;;7.84;87.76;101361.23;1747647;82;21046;-81
2021/10/10 01:40:46;;;;;;;11.30;5.30;;;;;;;7.83;87.80;101357.34;1743049;82;20988;-80
2021/10/10 01:43:13;;;;;;;11.43;5.23;;;;;;;7.78;88.19;101354.51;1742820;82;21047;-81
2021/10/10 01:45:40;;;;;;;14.37;5.30;;;;;;;7.77;88.03;101358.66;1712499;84;20997;-80
2021/10/10 01:48:06;;;;;;;11.03;4.77;;;;;;;7.75;88.32;101358.78;1712800;84;20973;-80
2021/10/10 01:50:33;;;;;;;9.20;4.50;;;;;;;7.73;88.01;101358.55;1682678;85;21084;-81
2021/10/10 01:53:00;;;;;;;10.47;4.70;;;;;;;7.73;88.48;101358.55;1712550;84;20991;-80
2021/10/10 01:55:27;;;;;;;10.80;4.60;;;;;;;7.72;89.78;101360.39;1682754;85;21029;-80
2021/10/10 01:57:54;;;;;;;12.43;4.87;;;;;;;7.69;88.75;101357.93;1712787;84;21083;-79
2021/10/10 02:00:20;;;;;;;9.33;4.60;;;;;;;7.68;88.83;101361.59;1682790;85;21093;-81
2021/10/10 02:02:48;;;;;;;11.07;5.00;;;;;;;7.68;89.17;101356.70;1712735;84;21004;-81
2021/10/10 02:05:15;;;;;;;10.20;4.57;;;;;;;7.66;88.48;101358.16;1682772;85;21522;-80
2021/10/10 02:07:44;;;;;;;11.97;4.70;;;;;;;7.65;89.06;101355.59;1712593;84;21108;-79
2021/10/10 02:10:11;;;;;;;15.07;4.93;;;;;;;7.63;89.62;101359.73;1682750;85;21009;-81
2021/10/10 02:12:38;;;;;;;8.33;4.80;;;;;;;7.62;88.78;101358.04;1712697;84;21025;-80
2021/10/10 02:15:07;;;;;;;12.87;4.90;;;;;;;7.61;86.53;101350.93;1682649;85;21938;-80
2021/10/10 02:17:34;;;;;;;12.80;5.17;;;;;;;7.64;87.52;101353.89;1712368;84;21037;-80
2021/10/10 02:20:04;;;;;;;13.00;5.40;;;;;;;7.64;89.04;101359.27;1680714;85;21022;-81
2021/10/10 02:22:31;;;;;;;10.43;5.30;;;;;;;7.63;89.84;101356.20;1741796;82;21020;-80
2021/10/10 02:24:59;;;;;;;10.07;4.97;;;;;;;7.61;90.12;101353.62;1741650;82;21052;-81
2021/10/10 02:27:26;;;;;;;9.47;4.80;;;;;;;7.60;90.70;101358.66;1741784;82;21029;-82
2021/10/10 02:29:52;;;;;;;14.17;5.80;;;;;;;7.58;91.35;101357.42;1706456;84;21037;-81
2021/10/10 02:32:20;;;;;;;11.17;5.00;;;;;;;7.56;91.10;101358.03;1741450;82;21063;-82
2021/10/10 02:34:49;;;;;;;15.33;5.60;;;;;;;7.55;91.49;101360.34;1706288;84;21018;-80
2021/10/10 02:37:16;;;;;;;11.50;5.57;;;;;;;7.54;91.35;101359.12;1741717;82;21049;-82
2021/10/10 02:39:43;;;;;;;13.50;5.40;;;;;;;7.52;91.57;101361.92;1741480;82;21013;-82
2021/10/10 02:42:10;;;;;;;11.13;5.40;;;;;;;7.51;91.72;101358.87;1741068;82;21005;-80
2021/10/10 02:44:37;;;;;;;15.00;4.90;;;;;;;7.49;92.52;101360.84;1740942;82;21033;-82
2021/10/10 02:47:04;;;;;;;8.73;4.60;;;;;;;7.49;92.64;101358.14;1741260;82;21025;-81
2021/10/10 02:49:31;;;;;;;9.17;4.60;;;;;;;7.49;92.50;101357.27;1740938;82;21029;-80
2021/10/10 02:51:58;;;;;;;9.90;4.63;;;;;;;7.49;92.42;101357.27;1741205;82;21085;-80
2021/10/10 02:54:24;;;;;;;10.93;4.93;;;;;;;7.47;92.96;101360.11;1741162;81;21112;-82
2021/10/10 02:56:51;;;;;;;11.97;4.60;;;;;;;7.47;92.99;101357.41;1741087;82;20982;-81
2021/10/10 02:59:18;;;;;;;10.97;5.00;;;;;;;7.48;92.27;101354.22;1720357;82;21112;-80
2021/10/10 03:01:45;;;;;;;9.17;4.40;;;;;;;7.49;93.42;101361.30;1741364;82;21045;-81
2021/10/10 03:04:11;;;;;;;14.63;4.87;;;;;;;7.48;94.66;101356.42;1741001;82;21512;-80
2021/10/10 03:06:38;;;;;;;9.37;4.80;;;;;;;7.48;94.77;101355.57;1740836;81;21037;-79
2021/10/10 03:09:05;;;;;;;11.80;4.50;;;;;;;7.48;95.34;101355.57;1741200;81;21014;-80
2021/10/10 03:11:32;;;;;;;10.50;4.53;;;;;;;7.48;94.92;101359.61;1741267;81;21057;-80
2021/10/10 03:14:02;;;;;;;10.37;4.57;;;;;;;7.49;95.38;101357.27;1740803;82;21002;-81
2021/10/10 03:16:29;;;;;;;10.80;4.63;;;;;;;7.48;96.47;101357.77;1741312;81;21560;-80
2021/10/10 03:18:56;;;;;;;15.03;5.00;;;;;;;7.49;95.48;101358.14;1741168;82;21054;-81
2021/10/10 03:21:22;;;;;;;8.73;4.50;;;;;;;7.50;97.02;101357.65;1729311;82;21022;-81
2021/10/10 03:23:49;;;;;;;11.47;4.20;;;;;;;7.50;98.43;101359.00;1725147;83;21034;-81
2021/10/10 03:26:16;;;;;;;11.10;4.60;;;;;;;7.51;98.71;101355.34;1725195;82;20983;-82
2021/10/10 03:28:45;;;;;;;7.47;3.93;;;;;;;7.50;100.00;101352.27;1725168;83;21082;-81
2021/10/10 03:31:12;;;;;;;9.87;4.37;;;;;;;7.49;100.00;101355.92;1725144;82;21003;-82
2021/10/10 03:33:39;;;;;;;10.40;4.17;;;;;;;7.48;100.00;101358.27;1724885;82;21097;-82
2021/10/10 03:36:06;;;;;;;8.50;4.10;;;;;;;7.46;100.00;101357.03;1725303;83;21015;-82
2021/10/10 03:38:33;;;;;;;6.70;4.00;;;;;;;7.45;100.00;101355.30;1724825;83;21018;-82
2021/10/10 03:40:59;;;;;;;6.83;4.00;;;;;;;7.45;100.00;101358.48;1725260;83;21049;-81
2021/10/10 03:43:27;;;;;;;8.93;4.60;;;;;;;7.43;100.00;101363.98;1725312;83;20994;-81
2021/10/10 03:45:53;;;;;;;12.40;5.03;;;;;;;7.41;100.00;101357.38;1730570;82;21338;-80
2021/10/10 03:48:23;;;;;;;11.10;4.70;;;;;;;7.42;100.00;101350.18;1739350;82;21030;-82
2021/10/10 03:50:51;;;;;;;7.23;4.00;;;;;;;7.41;100.00;101347.11;1739365;82;21039;-81
2021/10/10 03:53:19;;;;;;;10.43;4.50;;;;;;;7.40;100.00;101352.98;1739616;82;21055;-79
2021/10/10 03:55:50;;;;;;;10.27;4.80;;;;;;;7.42;100.00;101354.22;1739343;82;21046;-78
2021/10/10 03:58:15;;;;;;;11.23;4.60;;;;;;;7.40;100.00;101355.67;1736349;82;21051;-81
2021/10/10 04:00:42;;;;;;;7.97;4.43;;;;;;;7.42;100.00;101351.53;1739540;82;21062;-81
2021/10/10 04:03:11;;;;;;;8.73;4.03;;;;;;;7.42;100.00;101351.53;1739681;82;21532;-82
2021/10/10 04:05:41;;;;;;;9.40;4.07;;;;;;;7.43;100.00;101352.37;1739348;82;21035;-80
2021/10/10 04:08:09;;;;;;;12.20;4.67;;;;;;;7.43;100.00;101351.87;1739269;82;21091;-80
2021/10/10 04:10:36;;;;;;;11.20;4.47;;;;;;;7.43;100.00;101353.72;1739611;82;21058;-80
2021/10/10 04:13:03;;;;;;;8.83;4.27;;;;;;;7.42;100.00;101354.22;1739267;82;21798;-81
2021/10/10 04:15:30;;;;;;;6.90;4.10;;;;;;;7.43;100.00;101353.72;1739236;82;21038;-81
2021/10/10 04:17:56;;;;;;;9.90;4.17;;;;;;;7.43;100.00;101353.72;1739693;82;21039;-79
2021/10/10 04:20:23;;;;;;;14.70;4.10;;;;;;;7.43;100.00;101357.75;1741338;82;21006;-81
2021/10/10 04:22:50;;;;;;;7.73;4.07;;;;;;;7.42;100.00;101360.94;1747833;82;21026;-82
2021/10/10 04:25:17;;;;;;;9.33;3.90;;;;;;;7.43;100.00;101363.14;1747743;82;21026;-81
2021/10/10 04:27:44;;;;;;;11.97;4.40;;;;;;;7.43;100.00;101364.48;1747692;82;21487;-81
2021/10/10 04:30:14;;;;;;;9.47;4.30;;;;;;;7.43;100.00;101368.52;1747690;82;21014;-80
2021/10/10 04:32:42;;;;;;;7.93;3.90;;;;;;;7.42;100.00;101369.02;1747782;82;21551;-80
2021/10/10 04:35:10;;;;;;;8.20;4.23;;;;;;;7.42;100.00;101370.36;1747681;82;21030;-81
2021/10/10 04:37:37;;;;;;;10.57;4.43;;;;;;;7.42;100.00;101370.36;1747676;82;21046;-81
2021/10/10 04:40:04;;;;;;;8.37;3.90;;;;;;;7.41;100.00;101374.02;1744321;82;20977;-82
2021/10/10 04:42:37;;;;;;;8.27;3.97;;;;;;;7.42;100.00;101369.02;1712663;84;21009;-82
2021/10/10 04:45:06;;;;;;;8.73;3.90;;;;;;;7.43;100.00;101376.09;1677505;84;21120;-83
2021/10/10 04:47:32;;;;;;;16.83;4.53;;;;;;;7.45;100.00;101380.02;1694660;85;21051;-81
2021/10/10 04:50:01;;;;;;;8.27;4.23;;;;;;;7.44;100.00;101381.86;1694727;85;21012;-83
2021/10/10 04:52:30;;;;;;;7.30;4.20;;;;;;;7.46;100.00;101382.59;1694590;85;21020;-81
2021/10/10 04:54:57;;;;;;;9.97;4.07;;;;;;;7.47;100.00;101384.33;1694622;85;20980;-79
2021/10/10 04:57:24;;;;;;;10.47;4.00;;;;;;;7.47;100.00;101384.33;1694582;85;21648;-79
2021/10/10 04:59:51;;;;;;;10.87;4.20;;;;;;;7.49;100.00;101393.59;1671639;85;21044;-79
2021/10/10 05:02:20;;;;;;;9.57;4.50;;;;;;;7.50;100.00;101393.98;1694678;85;21012;-80
2021/10/10 05:04:49;;;;;;;8.97;4.17;;;;;;;7.51;100.00;101399.25;1704793;84;21579;-79
2021/10/10 05:07:16;;;;;;;11.27;4.20;;;;;;;7.52;100.00;101398.26;1702395;84;21080;-81
2021/10/10 05:09:45;;;;;;;10.23;4.10;;;;;;;7.53;100.00;101402.68;1702308;84;21101;-80
2021/10/10 05:12:13;;;;;;;8.73;4.30;;;;;;;7.54;100.00;101404.88;1702366;84;21046;-81
2021/10/10 05:14:42;;;;;;;7.87;4.07;;;;;;;7.54;100.00;101402.18;1702364;84;21117;-81
2021/10/10 05:17:09;;;;;;;8.07;3.90;;;;;;;7.56;100.00;101404.27;1702369;84;21045;-81
2021/10/10 05:19:38;;;;;;;13.50;4.30;;;;;;;7.59;100.00;101405.38;1702194;84;21540;-80
2021/10/10 05:22:04;;;;;;;12.57;4.37;;;;;;;7.60;100.00;101407.95;1698096;84;21081;-79
2021/10/10 05:24:31;;;;;;;7.30;4.07;;;;;;;7.62;100.00;101406.50;1697224;85;21070;-80
2021/10/10 05:26:59;;;;;;;10.20;4.37;;;;;;;7.64;100.00;101404.54;1697148;85;21078;-79
2021/10/10 05:29:26;;;;;;;8.80;4.20;;;;;;;7.66;100.00;101407.97;1697110;85;21505;-80
2021/10/10 05:31:53;;;;;;;11.17;4.27;;;;;;;7.68;100.00;101404.66;1697079;85;21073;-81
2021/10/10 05:34:20;;;;;;;7.13;4.10;;;;;;;7.72;100.00;101414.70;1697256;85;21049;-81
2021/10/10 05:36:49;;;;;;;10.60;4.37;;;;;;;7.74;100.00;101411.43;1697042;85;21536;-80
2021/10/10 05:39:15;;;;;;;9.40;4.70;;;;;;;7.76;100.00;101407.63;1697399;85;21018;-81
2021/10/10 05:41:42;;;;;;;9.57;4.43;;;;;;;7.79;100.00;101411.91;1685522;85;21058;-79
2021/10/10 05:44:08;;;;;;;9.60;4.40;;;;;;;7.81;100.00;101404.59;1682983;85;21026;-81
2021/10/10 05:46:35;;;;;;;10.83;4.30;;;;;;;7.85;100.00;101408.75;1697229;84;21544;-82
2021/10/10 05:49:02;;;;;;;9.77;4.50;;;;;;;7.90;99.24;101406.55;1709797;84;21043;-81
2021/10/10 05:51:29;;;;;;;11.27;4.63;;;;;;;7.97;98.02;101417.22;1710059;84;21011;-81
2021/10/10 05:53:56;;;;;;;12.17;4.90;;;;;;;8.04;96.78;101416.72;1709802;84;21130;-81
2021/10/10 05:56:23;;;;;;;10.90;4.27;;;;;;;8.12;96.53;101421.02;1709646;84;21615;-81
2021/10/10 05:58:56;;;;;;;9.00;4.00;;;;;;;8.20;96.57;101417.23;1709788;84;21046;-82
2021/10/10 06:01:19;;;;;;;9.70;4.37;;;;;;;8.29;93.45;101417.00;1718693;82;21082;-81
2021/10/10 06:03:46;;;;;;;8.13;4.30;;;;;;;8.37;93.14;101415.88;1707194;84;21033;-78
2021/10/10 06:06:13;;;;;;;8.07;4.30;;;;;;;8.44;92.01;101418.47;1740453;82;21026;-83
2021/10/10 06:08:40;;;;;;;9.80;4.60;;;;;;;8.52;90.50;101419.22;1739929;82;21066;-80
2021/10/10 06:11:09;;;;;;;9.70;4.30;;;;;;;8.58;89.22;101421.91;1740460;82;21480;-81
2021/10/10 06:13:38;;;;;;;9.70;4.47;;;;;;;8.65;87.81;101421.77;1687759;84;21098;-80
2021/10/10 06:16:06;;;;;;;12.33;4.53;;;;;;;8.69;85.45;101424.11;1740324;82;21018;-80
2021/10/10 06:18:33;;;;;;;10.20;5.07;;;;;;;8.72;85.80;101422.48;1740308;82;21316;-80
2021/10/10 06:21:00;;;;;;;8.37;4.20;;;;;;;8.78;85.96;101425.67;1737516;82;21014;-81
2021/10/10 06:23:27;;;;;;;10.97;4.70;;;;;;;8.83;86.98;101422.11;1685899;85;21468;-80
2021/10/10 06:25:53;;;;;;;13.10;4.43;;;;;;;8.87;85.13;101421.73;1730218;83;21030;-82
2021/10/10 06:28:20;;;;;;;9.10;4.25;;;;;;;8.90;84.28;101426.86;1697642;84;21023;-80
2021/10/10 06:30:47;;;;;;;11.87;4.60;;;;;;;8.93;81.44;101433.86;1697784;85;21109;-81
2021/10/10 06:33:14;;;;;;;8.30;4.50;;;;;;;8.98;81.55;101429.41;1697573;85;21034;-80
2021/10/10 06:35:41;;;;;;;8.73;4.50;;;;;;;9.00;80.08;101428.82;1730529;83;21030;-82
2021/10/10 06:38:08;;;;;;;13.77;5.27;;;;;;;9.05;81.84;101426.10;1697423;85;21042;-81
2021/10/10 06:40:36;;;;;;;12.67;5.50;;;;;;;9.15;80.08;101423.98;1725315;83;20978;-84
2021/10/10 06:43:05;;;;;;;7.97;4.70;;;;;;;9.23;79.49;101426.41;1725285;83;21054;-82
2021/10/10 06:45:33;;;;;;;10.38;4.55;;;;;;;9.35;79.74;101425.00;1734757;81;21021;-78
2021/10/10 06:47:59;;;;;;;13.58;4.70;;;;;;;9.47;78.30;101422.61;1735631;81;20998;-78
2021/10/10 06:50:27;;;;;;;14.07;4.72;;;;;;;9.58;79.06;101425.28;1729427;82;21073;-77
2021/10/10 06:52:53;;;;;;;7.97;4.00;;;;;;;9.69;74.76;101424.36;1732960;83;20987;-76
2021/10/10 06:55:20;;;;;;;14.20;5.58;;;;;;;9.73;72.75;101420.39;1694721;85;21022;-76
2021/10/10 06:57:50;;;;;;;12.33;4.80;;;;;;;9.80;73.20;101427.48;1698677;84;21059;-78
2021/10/10 07:00:17;;;;;;;10.32;4.92;;;;;;;9.89;70.71;101420.77;1695032;85;21046;-79
2021/10/10 07:02:45;;;;;;;8.85;4.90;;;;;;;9.95;71.66;101421.23;1693488;85;21149;-78
2021/10/10 07:05:13;;;;;;;8.98;4.40;;;;;;;10.02;69.86;101425.99;1690060;85;21015;-76
2021/10/10 07:07:40;;;;;;;7.37;4.40;;;;;;;10.08;68.21;101426.80;1690853;84;21034;-75
2021/10/10 07:10:09;;;;;;;11.93;4.80;;;;;;;10.11;65.57;101420.75;1704945;84;21098;-75
2021/10/10 07:12:36;;;;;;;10.70;4.65;;;;;;;10.12;64.33;101424.67;1693594;85;21070;-75
2021/10/10 07:15:10;;;;;;;13.53;4.45;;;;;;;10.17;63.58;101421.08;1705953;84;21513;-75
2021/10/10 07:17:37;;;;;;;7.30;4.17;;;;;;;10.23;64.06;101422.38;1694037;85;21003;-74
2021/10/10 07:20:12;;;;;;;11.10;4.47;;;;;;;10.33;64.54;101421.13;1700623;82;21465;-76
2021/10/10 07:25:09;;;;;;;10.18;4.30;;;;;;;10.52;63.17;101419.84;1727080;83;20975;-74
2021/10/10 07:27:41;;;;;;;7.83;4.35;;;;;;;10.66;64.04;101420.44;1725907;83;20998;-76
2021/10/10 07:30:11;;;;;;;6.33;3.90;;;;;;;10.78;63.26;101419.33;1728255;83;21545;-77
2021/10/10 07:32:38;;;;;;;12.47;4.50;;;;;;;10.90;62.68;101419.58;1720398;82;21002;-76
2021/10/10 07:35:06;;;;;;;10.15;4.45;;;;;;;11.01;60.90;101411.83;1738665;82;21002;-74
2021/10/10 07:37:33;;;;;;;9.55;4.42;;;;;;;11.08;59.19;101417.03;1734943;82;21136;-77
2021/10/10 07:40:02;;;;;;;9.20;3.83;;;;;;;11.14;57.94;101415.64;1705955;84;21045;-76
2021/10/10 07:42:30;;;;;;;9.40;4.08;;;;;;;11.14;57.81;101412.94;1718467;83;21545;-80
2021/10/10 07:45:06;;;;;;;8.63;3.67;;;;;;;11.20;56.85;101418.61;1727743;83;21041;-77
2021/10/10 07:49:52;;;;;;;10.43;4.30;;;;;;;11.17;55.21;101412.63;1726182;83;21104;-78
2021/10/10 07:52:20;;;;;;;11.20;4.12;;;;;;;11.22;55.64;101410.35;1723778;83;21014;-77
2021/10/10 07:54:47;;;;;;;10.25;4.53;;;;;;;11.34;55.99;101411.08;1727343;83;20997;-78
2021/10/10 07:57:14;;;;;;;11.65;4.37;;;;;;;11.54;55.38;101411.92;1720854;83;21033;-77
2021/10/10 07:59:42;;;;;;;8.10;4.20;;;;;;;11.79;54.18;101406.38;1725712;83;21106;-77
2021/10/10 08:02:11;;;;;;;6.20;3.62;;;;;;;12.08;52.94;101396.87;1721489;83;21045;-76
2021/10/10 08:04:38;;;;;;;9.68;3.98;;;;;;;12.34;52.44;101400.25;1727306;83;21014;-78
2021/10/10 08:07:05;;;;;;;9.88;4.60;;;;;;;12.60;50.75;101395.50;1736397;82;21033;-75
2021/10/10 08:09:32;;;;;;;7.47;3.65;;;;;;;12.89;49.67;101396.66;1735348;82;21053;-78
2021/10/10 08:12:01;;;;;;;9.88;3.95;;;;;;;13.14;48.62;101389.65;1711331;83;21002;-77
2021/10/10 08:14:28;;;;;;;14.18;4.30;;;;;;;13.31;47.50;101393.39;1711250;83;21456;-78
2021/10/10 08:16:55;;;;;;;6.45;4.03;;;;;;;13.29;46.12;101395.38;1709612;83;21556;-80
2021/10/10 08:19:21;;;;;;;12.73;4.30;;;;;;;13.16;46.04;101382.71;1709244;83;21050;-79
2021/10/10 08:21:49;;;;;;;11.85;4.50;;;;;;;13.13;47.15;101383.86;1738933;82;20959;-83
2021/10/10 08:24:18;;;;;;;10.03;4.15;;;;;;;13.18;47.12;101390.19;1734658;82;20955;-76
2021/10/10 08:26:45;;;;;;;7.95;4.10;;;;;;;13.19;47.52;101383.25;1735455;82;20986;-80
2021/10/10 08:29:12;;;;;;;8.05;4.37;;;;;;;13.18;47.01;101386.96;1711705;82;21006;-78
2021/10/10 08:31:39;;;;;;;13.15;5.05;;;;;;;13.15;48.05;101386.42;1714738;84;21066;-79
2021/10/10 08:34:06;;;;;;;10.18;4.70;;;;;;;13.14;47.90;101386.94;1698523;84;21009;-80
2021/10/10 08:36:33;;;;;;;12.43;4.78;;;;;;;13.11;48.46;101391.31;1707594;84;21112;-78
2021/10/10 08:39:00;;;;;;;9.20;4.30;;;;;;;13.13;48.45;101383.02;1734538;83;20970;-78
2021/10/10 08:41:33;;;;;;;7.97;4.42;;;;;;;13.11;48.41;101388.59;1734837;82;21050;-77
2021/10/10 08:44:02;;;;;;;9.43;4.50;;;;;;;13.05;48.39;101390.07;1712378;84;21599;-83
2021/10/10 08:46:33;;;;;;;11.65;4.90;;;;;;;13.01;48.44;101385.09;1712442;84;21591;-79
2021/10/10 08:48:59;;;;;;;13.48;4.75;;;;;;;12.99;49.10;101382.52;1711930;84;21042;-76
2021/10/10 08:51:25;;;;;;;13.00;4.90;;;;;;;13.15;50.03;101382.34;1711900;84;21074;-74
2021/10/10 08:53:52;;;;;;;12.20;5.05;;;;;;;13.32;48.73;101379.33;1711902;84;21074;-76
2021/10/10 08:56:19;;;;;;;9.90;4.75;;;;;;;13.37;48.14;101379.20;1711932;84;21014;-73
2021/10/10 08:58:47;;;;;;;14.50;4.65;;;;;;;13.45;48.75;101379.76;1691800;84;21523;-76
2021/10/10 09:01:18;;;;;;;11.73;4.58;;;;;;;13.51;46.96;101372.35;1712012;84;21076;-74
2021/10/10 09:03:49;;;;;;;15.20;4.53;;;;;;;13.45;47.10;101377.88;1711628;84;21135;-79
2021/10/10 09:06:17;;;;;;;13.20;4.75;;;;;;;13.53;47.16;101368.09;1711965;84;21037;-77
2021/10/10 09:08:43;;;;;;;12.50;4.70;;;;;;;13.70;48.29;101365.00;1712022;84;21598;-80
2021/10/10 09:11:11;;;;;;;11.50;4.60;;;;;;;14.07;47.96;101366.59;1712480;84;21104;-81
2021/10/10 09:13:42;;;;;;;11.28;4.60;;;;;;;14.39;47.25;101355.00;1712256;84;21024;-77
2021/10/10 09:16:11;;;;;;;15.93;5.12;;;;;;;15.15;44.21;101358.11;1711994;84;21061;-76
2021/10/10 09:18:41;;;;;;;13.10;4.10;;;;;;;15.15;44.21;101358.11;1711930;84;21048;-77
2021/10/10 09:21:18;;;;;;;7.62;4.05;;;;;;;15.20;42.48;101363.06;1707079;84;21076;-76
2021/10/10 09:23:47;;;;;;;8.88;3.85;;;;;;;15.10;40.93;101356.42;1707719;84;22456;-77
2021/10/10 09:26:14;;;;;;;10.70;3.83;;;;;;;15.10;40.93;101356.42;1707488;84;21044;-76
2021/10/10 09:28:41;;;;;;;8.40;3.83;;;;;;;15.13;40.89;101362.03;1707539;84;21534;-76
2021/10/10 09:31:09;;;;;;;8.70;3.85;;;;;;;15.20;40.88;101364.42;1707937;84;21028;-81
2021/10/10 09:36:24;;;;;;;8.73;3.80;;;;;;;15.35;38.70;101355.92;1626835;88;21135;-78
2021/10/10 09:39:04;;;;;;;8.10;4.40;;;;;;;15.29;38.38;101354.38;1627331;88;21501;-77
2021/10/10 09:44:23;;;;;;;11.55;4.55;;;;;;;15.30;38.90;101360.19;1628326;88;21113;-79
2021/10/10 09:46:50;;;;;;;10.87;4.07;;;;;;;15.30;38.61;101357.46;1630998;86;21073;-78
2021/10/10 09:49:29;;;;;;;11.97;4.30;;;;;;;15.43;39.13;101350.97;1628315;88;21045;-75
2021/10/10 09:52:11;;;;;;;8.85;4.10;;;;;;;15.43;39.13;101350.97;1626255;88;20978;-76
2021/10/10 09:54:57;;;;;;;9.35;3.90;;;;;;;15.46;39.08;101354.72;1627914;87;21097;-75
2021/10/10 09:57:27;;;;;;;10.15;4.53;;;;;;;15.45;38.32;101352.16;1624136;87;21063;-73
2021/10/10 09:59:55;;;;;;;10.55;4.50;;;;;;;15.36;37.23;101358.13;1622369;87;21070;-73
2021/10/10 10:02:41;;;;;;;12.47;4.83;;;;;;;15.31;36.93;101363.23;1621508;88;21007;-76
2021/10/10 10:05:08;;;;;;;13.60;4.78;;;;;;;15.29;37.55;101359.31;1618576;88;21029;-75
2021/10/10 10:07:35;;;;;;;13.58;5.03;;;;;;;15.36;37.51;101369.03;1621749;88;21073;-74
2021/10/10 10:10:06;;;;;;;8.28;4.53;;;;;;;15.44;37.76;101356.77;1629119;87;21145;-78
2021/10/10 10:12:33;;;;;;;8.13;4.05;;;;;;;15.56;37.69;101364.95;1607120;88;21157;-76
2021/10/10 10:15:01;;;;;;;12.63;3.77;;;;;;;15.64;37.28;101359.98;1621826;88;21112;-78
2021/10/10 10:17:28;;;;;;;6.30;3.62;;;;;;;15.62;37.10;101362.56;1609988;88;21083;-79
2021/10/10 10:19:57;;;;;;;5.87;3.65;;;;;;;15.60;37.23;101352.31;1616456;89;21147;-77
2021/10/10 10:22:25;;;;;;;8.43;3.70;;;;;;;15.53;36.50;101361.19;1616056;86;21132;-78
2021/10/10 10:24:52;;;;;;;9.08;3.77;;;;;;;15.37;36.55;101361.20;1616257;89;21030;-76
2021/10/10 10:27:21;;;;;;;9.98;3.92;;;;;;;15.27;36.70;101371.41;1615652;87;21522;-74
2021/10/10 10:29:48;;;;;;;10.05;4.20;;;;;;;15.10;36.84;101360.52;1611884;89;21112;-76
2021/10/10 10:32:15;;;;;;;7.95;4.00;;;;;;;15.05;37.28;101354.72;1624793;86;21032;-75
2021/10/10 10:35:01;;;;;;;6.12;3.50;;;;;;;15.08;37.37;101352.99;1667140;85;21075;-78
2021/10/10 10:37:46;;;;;;;7.58;3.95;;;;;;;15.05;36.55;101351.11;1652520;87;21006;-74
2021/10/10 10:40:28;;;;;;;11.03;3.90;;;;;;;15.03;36.74;101346.35;1598649;88;21137;-76
2021/10/10 10:42:56;;;;;;;9.73;4.08;;;;;;;15.06;37.56;101349.59;1594805;90;21133;-77
2021/10/10 10:45:30;;;;;;;11.63;4.10;;;;;;;15.17;37.74;101348.41;1593658;90;21054;-79
2021/10/10 10:48:01;;;;;;;13.00;3.85;;;;;;;15.29;37.59;101353.02;1592069;90;21110;-76
2021/10/10 10:50:29;;;;;;;8.30;3.60;;;;;;;15.23;37.03;101349.11;1528183;94;21085;-75
2021/10/10 10:53:00;;;;;;;8.48;3.83;;;;;;;15.18;37.02;101354.20;1529295;94;21037;-75
2021/10/10 10:55:33;;;;;;;9.93;4.62;;;;;;;15.17;37.05;101349.28;1541633;93;21042;-77
2021/10/10 10:58:10;;;;;;;;;;;;;;;15.15;37.23;101350.45;1557774;92;21044;-76
2021/10/10 11:00:45;;;;;;;11.80;4.15;;;;;;;15.22;37.27;101353.36;1554157;92;20492;-75
2021/10/10 11:03:26;;;;;;;16.30;4.45;;;;;;;15.27;37.34;101345.01;1556737;92;21084;-75
2021/10/10 11:06:09;;;;;;;10.72;4.78;;;;;;;15.40;37.46;101343.13;1556820;92;21068;-75
2021/10/10 11:08:43;;;;;;;13.22;4.50;;;;;;;15.49;37.48;101345.34;1544781;89;21117;-74
2021/10/10 11:11:20;;;;;;;8.28;4.00;;;;;;;15.50;36.85;101341.60;1545046;93;21084;-74
2021/10/10 11:14:02;;;;;;;8.05;3.67;;;;;;;15.46;37.02;101338.37;1544841;93;21117;-75
2021/10/10 11:16:34;;;;;;;9.13;3.80;;;;;;;15.43;36.82;101348.24;1616344;86;21053;-73
2021/10/10 11:19:13;;;;;;;14.75;4.20;;;;;;;15.44;37.34;101338.18;1660577;86;21037;-76
2021/10/10 11:21:43;;;;;;;11.08;4.08;;;;;;;15.42;36.78;101333.42;1657433;84;21038;-75
2021/10/10 11:24:22;;;;;;;10.70;4.10;;;;;;;15.26;36.34;101342.45;1597366;89;21033;-75
2021/10/10 11:26:51;;;;;;;11.70;5.03;;;;;;;15.06;37.09;101338.70;1596678;90;22208;-75
2021/10/10 11:29:22;;;;;;;13.95;4.83;;;;;;;15.04;37.77;101337.17;1595598;90;21061;-75
2021/10/10 11:31:49;;;;;;;11.48;5.50;;;;;;;15.06;38.52;101333.77;1566310;91;21098;-73
2021/10/10 11:34:19;;;;;;;10.93;5.17;;;;;;;15.10;37.98;101331.91;1562960;91;21563;-73
2021/10/10 11:36:51;;;;;;;11.03;4.70;;;;;;;15.11;38.04;101340.92;1494468;96;21078;-77
2021/10/10 11:39:29;;;;;;;9.93;4.42;;;;;;;15.08;37.53;101331.72;1494148;94;22362;-75